Alpine, Arkansas
Current Conditions -  °F | °C
As of 1:15 PM on Monday 20 Oct 2014 (Local Time) from KADF Reporting Station
Light Rain Light Rain  
Wind Chill: 21°   Ceiling: Unl
Heat Index: 21°   Visibility: 9mi
Dew Point: 14°   Wind: 7mph
Humidity: 64%   Direction: NA
Pressure: 30.08"   Gusts: NA
Location:  34.23°N, 93.38°W
Report Text: KADF 201815Z AUTO VRB06KT 9SM -RA FEW002 SCT045 SCT070 21/14 A3008 RMK AO2 RAB09 P0000
Loading
Personal Weather Stations






























Interactive Weather Map
Tropical Storm Tracking
New forecast layout! Learn more

10-Day Weather Forecast

Advertisements
Track Severe Weather on mobile